Kotzebue, AK

2:25 AM AKDT on July 30, 2016 (GMT -0800)
Wien Memorial | | Change Station

Elev 16 ft 66.88 °N, 162.60 °W | Updated 32 minutes ago

Clear
Clear
48 °F
Feels Like 48 °F
N
13
Wind Variable Wind from NNW

Today
High -- | Low -- °F
--% Chance of Precip.
Yesterday
High -- | Low -- °F
Precip. -- in
Pressure 29.85 in
Visibility 10.0 miles
Clouds Clear
Dew Point 38 °F
Humidity 68%
Rainfall 0.00 in
Snow Depth Not available.
5:18 AM 0:31 AM
Waning Crescent, 14% visible
METAR PAOT 300953Z 33011KT 10SM CLR 09/03 A2985 RMK AO2 SLP108 T00890033
Pressure 29.85 in
Visibility 10.0 miles
Clouds Clear
Dew Point 38 °F
Humidity 68%
Rainfall 0.00 in
Snow Depth Not available.
5:18 AM 0:31 AM
Waning Crescent, 14% visible
METAR PAOT 300953Z 33011KT 10SM CLR 09/03 A2985 RMK AO2 SLP108 T00890033

10-Day Weather Forecast

Almanac

Astronomy

Jul. 30, 2016 Rise Set
Actual Time
Civil Twilight
Nautical Twilight
Astronomical Twilight
Moon
Length of Visible Light
Length of Day
Tomorrow will be .
, % of the Moon is Illuminated

Today's Extremes

State Highs State Lows

Community

WunderPhotos

Upload Photos

1,928,530 photos uploaded!

WunderBlog® & News

Nearby

Air Quality

  Air Quality AQ Index Pollutant
Not available.

Snow Depth

Station Depth Elevation

Earthquake Activity

City Distance Mag. Time & Date
Minimum magnitude displayed is 2.5.

Coastal Water Temperatures

Place Temperature

Stations

Nearby Weather Stations

Station Location Temp. Windchill Dew Point Humidity Wind Precip. Elev Updated Type
                   

Watches & Warnings

There are currently no watches in effect.